createdAt,value
2023-05-23T00:02:08.946Z,7.70
2023-05-23T00:04:36.962Z,7.53
2023-05-23T00:07:05.825Z,7.38
2023-05-23T00:09:34.477Z,8.57
2023-05-23T00:12:03.159Z,7.90
2023-05-23T00:14:34.237Z,7.32
2023-05-23T00:17:02.081Z,6.97
2023-05-23T00:19:30.645Z,7.13
2023-05-23T00:21:58.685Z,7.07
2023-05-23T00:24:27.432Z,8.18
2023-05-23T00:26:55.250Z,5.97
2023-05-23T00:29:23.049Z,7.07
2023-05-23T00:31:51.344Z,7.00
2023-05-23T00:34:19.499Z,7.28
2023-05-23T00:36:50.728Z,8.88
2023-05-23T00:39:21.863Z,8.95
2023-05-23T00:41:52.429Z,8.02
2023-05-23T00:44:22.038Z,7.40
2023-05-23T00:46:55.538Z,6.75
2023-05-23T00:49:24.405Z,8.25
2023-05-23T00:51:52.881Z,7.40
2023-05-23T00:54:31.319Z,6.95
2023-05-23T00:56:59.835Z,6.88
2023-05-23T00:59:28.208Z,8.75
2023-05-23T01:01:57.604Z,7.18
2023-05-23T01:04:29.046Z,8.60
2023-05-23T01:06:57.092Z,9.15
2023-05-23T01:09:28.808Z,6.85
2023-05-23T01:12:30.776Z,7.63
2023-05-23T01:15:10.051Z,7.45
2023-05-23T01:17:55.314Z,7.70
2023-05-23T01:20:29.012Z,6.93
2023-05-23T01:23:03.087Z,7.10
2023-05-23T01:25:37.444Z,8.27
2023-05-23T01:28:11.100Z,8.60
2023-05-23T01:30:42.173Z,7.95
2023-05-23T01:33:12.034Z,6.82
2023-05-23T01:35:40.920Z,6.90
2023-05-23T01:38:10.061Z,7.97
2023-05-23T01:40:39.370Z,7.10
2023-05-23T01:43:07.557Z,6.60
2023-05-23T01:45:35.985Z,8.85
2023-05-23T01:48:06.410Z,7.90
2023-05-23T01:50:35.141Z,7.53
2023-05-23T01:53:06.346Z,9.73
2023-05-23T01:55:35.761Z,7.13
2023-05-23T01:58:05.422Z,7.43
2023-05-23T02:00:33.415Z,7.38
2023-05-23T02:03:03.091Z,7.78
2023-05-23T02:05:31.200Z,8.52
2023-05-23T02:07:58.990Z,6.85
2023-05-23T02:10:26.899Z,8.07
2023-05-23T02:12:56.358Z,7.40
2023-05-23T02:15:24.284Z,8.30
2023-05-23T02:17:52.235Z,7.93
2023-05-23T02:20:22.154Z,8.98
2023-05-23T02:22:50.031Z,7.53
2023-05-23T02:25:17.674Z,8.43
2023-05-23T02:27:45.524Z,7.65
2023-05-23T02:30:15.891Z,6.63
2023-05-23T02:32:47.923Z,8.27
2023-05-23T02:35:16.173Z,8.10
2023-05-23T02:37:43.914Z,8.30
2023-05-23T02:40:12.909Z,10.02
2023-05-23T02:42:40.929Z,9.05
2023-05-23T02:45:09.488Z,7.57
2023-05-23T02:47:37.307Z,8.52
2023-05-23T02:50:05.647Z,9.50
2023-05-23T02:52:34.493Z,9.23
2023-05-23T02:55:02.529Z,8.23
2023-05-23T02:57:35.592Z,7.32
2023-05-23T03:00:03.828Z,7.63
2023-05-23T03:02:32.927Z,7.65
2023-05-23T03:05:01.103Z,8.15
2023-05-23T03:07:29.126Z,7.05
2023-05-23T03:09:57.356Z,8.57
2023-05-23T03:12:25.199Z,7.53
2023-05-23T03:14:54.527Z,7.35
2023-05-23T03:17:22.415Z,7.00
2023-05-23T03:19:50.692Z,7.05
2023-05-23T03:22:20.622Z,8.38
2023-05-23T03:24:48.681Z,6.78
2023-05-23T03:27:16.441Z,8.23
2023-05-23T03:29:45.714Z,7.53
2023-05-23T03:32:14.049Z,6.65
2023-05-23T03:34:41.850Z,7.60
2023-05-23T03:37:09.606Z,6.85
2023-05-23T03:39:39.496Z,5.90
2023-05-23T03:42:07.829Z,7.75
2023-05-23T03:44:36.025Z,6.43
2023-05-23T03:47:07.179Z,5.75
2023-05-23T03:49:36.397Z,6.65
2023-05-23T03:52:04.374Z,6.72
2023-05-23T03:54:32.841Z,5.45
2023-05-23T03:57:00.785Z,6.30
2023-05-23T03:59:33.588Z,7.88
2023-05-23T04:02:01.633Z,6.15
2023-05-23T04:04:30.578Z,7.28
2023-05-23T04:06:59.495Z,10.18
2023-05-23T04:09:27.953Z,6.13
2023-05-23T04:11:56.107Z,6.88
2023-05-23T04:14:27.664Z,6.65
2023-05-23T04:16:57.113Z,5.82
2023-05-23T04:19:25.066Z,7.45
2023-05-23T04:21:53.487Z,7.07
2023-05-23T04:24:21.454Z,5.50
2023-05-23T04:26:49.879Z,6.57
2023-05-23T04:29:17.904Z,6.35
2023-05-23T04:31:46.311Z,6.45
2023-05-23T04:34:14.740Z,7.85
2023-05-23T04:36:44.887Z,7.05
2023-05-23T04:39:14.374Z,7.00
2023-05-23T04:41:54.550Z,6.57
2023-05-23T04:44:40.212Z,9.80
2023-05-23T04:47:14.334Z,7.70
2023-05-23T04:49:54.263Z,6.95
2023-05-23T04:52:22.447Z,8.10
2023-05-23T04:54:54.301Z,6.70
2023-05-23T04:57:25.323Z,7.00
2023-05-23T04:59:53.064Z,7.03
2023-05-23T05:02:21.185Z,9.43
2023-05-23T05:04:49.009Z,9.30
2023-05-23T05:07:17.212Z,10.18
2023-05-23T05:09:45.719Z,12.05
2023-05-23T05:12:14.610Z,12.05
2023-05-23T05:14:42.451Z,10.60
2023-05-23T05:17:10.303Z,10.13
2023-05-23T05:19:52.161Z,10.98
2023-05-23T05:22:20.069Z,13.75
2023-05-23T05:24:47.929Z,16.10
2023-05-23T05:27:16.041Z,17.15
2023-05-23T05:29:45.470Z,10.70
2023-05-23T05:32:13.332Z,9.70
2023-05-23T05:34:41.263Z,12.73
2023-05-23T05:37:09.114Z,9.90
2023-05-23T05:39:37.077Z,7.22
2023-05-23T05:42:05.584Z,7.75
2023-05-23T05:44:33.518Z,7.07
2023-05-23T05:47:01.251Z,6.55
2023-05-23T05:49:30.205Z,8.68
2023-05-23T05:51:58.240Z,6.57
2023-05-23T05:54:26.107Z,8.20
2023-05-23T05:56:55.345Z,6.55
2023-05-23T05:59:23.379Z,6.32
2023-05-23T06:01:52.294Z,6.28
2023-05-23T06:04:20.199Z,5.63
2023-05-23T06:06:48.977Z,6.13
2023-05-23T06:09:21.210Z,9.05
2023-05-23T06:11:49.586Z,6.93
2023-05-23T06:14:21.998Z,6.65
2023-05-23T06:16:50.767Z,8.38
2023-05-23T06:19:23.530Z,8.35
2023-05-23T06:21:51.602Z,7.38
2023-05-23T06:24:23.390Z,7.97
2023-05-23T06:26:54.222Z,10.23
2023-05-23T06:29:24.590Z,8.07
2023-05-23T06:31:53.558Z,9.18
2023-05-23T06:34:22.407Z,6.88
2023-05-23T06:36:53.516Z,7.38
2023-05-23T06:39:24.718Z,6.43
2023-05-23T06:41:53.190Z,8.38
2023-05-23T06:44:22.749Z,5.97
2023-05-23T06:46:57.855Z,8.02
2023-05-23T06:49:29.430Z,7.65
2023-05-23T06:51:58.335Z,5.45
2023-05-23T06:54:29.489Z,5.90
2023-05-23T06:56:58.407Z,6.93
2023-05-23T06:59:26.709Z,8.13
2023-05-23T07:01:55.400Z,11.23
2023-05-23T07:04:24.595Z,5.93
2023-05-23T07:06:54.250Z,7.00
2023-05-23T07:09:25.129Z,7.47
2023-05-23T07:11:59.823Z,9.18
2023-05-23T07:14:27.642Z,8.25
2023-05-23T07:16:55.607Z,7.63
2023-05-23T07:19:24.289Z,8.75
2023-05-23T07:21:53.830Z,11.55
2023-05-23T07:24:26.931Z,6.72
2023-05-23T07:27:00.756Z,8.50
2023-05-23T07:29:29.162Z,8.77
2023-05-23T07:32:01.997Z,9.10
2023-05-23T07:34:31.580Z,7.30
2023-05-23T07:37:05.180Z,7.97
2023-05-23T07:39:45.325Z,9.13
2023-05-23T07:42:16.892Z,11.10
2023-05-23T07:44:48.724Z,13.35
2023-05-23T07:47:18.681Z,11.13
2023-05-23T07:49:52.406Z,7.97
2023-05-23T07:52:23.371Z,7.88
2023-05-23T07:54:55.390Z,9.05
2023-05-23T07:57:27.947Z,7.88
2023-05-23T07:59:57.915Z,6.13
2023-05-23T08:02:28.448Z,10.35
2023-05-23T08:04:59.028Z,9.98
2023-05-23T08:07:28.017Z,8.68
2023-05-23T08:10:21.557Z,8.60
2023-05-23T08:13:10.956Z,6.50
2023-05-23T08:16:09.569Z,9.20
2023-05-23T08:18:39.279Z,6.07
2023-05-23T08:21:09.036Z,7.70
2023-05-23T08:23:37.294Z,11.35
2023-05-23T08:26:09.506Z,12.40
2023-05-23T08:28:42.893Z,8.65
2023-05-23T08:31:14.002Z,6.57
2023-05-23T08:33:45.675Z,8.82
2023-05-23T08:36:15.119Z,5.93
2023-05-23T08:38:46.351Z,7.38
2023-05-23T08:41:29.658Z,9.50
2023-05-23T08:44:05.069Z,9.98
2023-05-23T08:46:46.701Z,7.38
2023-05-23T08:49:26.902Z,6.95
2023-05-23T08:52:01.904Z,6.88
2023-05-23T08:54:35.108Z,8.70
2023-05-23T08:57:04.045Z,8.00
2023-05-23T08:59:45.202Z,8.27
2023-05-23T09:02:15.553Z,8.90
2023-05-23T09:04:46.990Z,6.75
2023-05-23T09:07:20.178Z,8.05
2023-05-23T09:09:51.297Z,7.43
2023-05-23T09:12:22.655Z,8.40
2023-05-23T09:14:52.155Z,6.35
2023-05-23T09:17:24.131Z,6.38
2023-05-23T09:19:53.855Z,6.55
2023-05-23T09:22:41.752Z,7.75
2023-05-23T09:25:16.033Z,8.98
2023-05-23T09:27:48.247Z,7.68
2023-05-23T09:30:19.177Z,6.45
2023-05-23T09:33:05.620Z,8.55
2023-05-23T09:35:39.212Z,7.68
2023-05-23T09:38:09.048Z,6.85
2023-05-23T09:40:48.805Z,9.13
2023-05-23T09:43:22.543Z,7.45
2023-05-23T09:45:56.727Z,7.25
2023-05-23T09:48:35.390Z,6.45
2023-05-23T09:51:13.496Z,7.32
2023-05-23T09:53:42.362Z,5.63
2023-05-23T09:56:21.112Z,6.40
2023-05-23T09:58:50.713Z,8.02
2023-05-23T10:01:22.933Z,7.95
2023-05-23T10:04:00.466Z,5.35
2023-05-23T10:06:35.467Z,7.32
2023-05-23T10:09:10.435Z,12.95
2023-05-23T10:12:34.102Z,13.57
2023-05-23T10:15:10.989Z,13.05
2023-05-23T10:18:03.938Z,13.65
2023-05-23T10:20:33.378Z,10.30
2023-05-23T10:23:01.963Z,12.48
2023-05-23T10:25:30.049Z,13.73
2023-05-23T10:28:00.926Z,10.65
2023-05-23T10:30:30.386Z,15.73
2023-05-23T10:32:59.816Z,10.35
2023-05-23T10:35:43.854Z,13.90
2023-05-23T10:38:27.246Z,12.23
2023-05-23T10:41:18.905Z,9.07
2023-05-23T10:44:01.284Z,9.57
2023-05-23T10:46:52.907Z,15.63
2023-05-23T10:49:42.132Z,25.35
2023-05-23T10:52:13.802Z,24.90
2023-05-23T10:54:49.541Z,21.58
2023-05-23T10:57:20.182Z,25.52
2023-05-23T10:59:52.200Z,30.65
2023-05-23T11:02:26.715Z,18.58
2023-05-23T11:05:22.947Z,17.70
2023-05-23T11:08:13.843Z,16.23
2023-05-23T11:10:54.981Z,16.63
2023-05-23T11:13:23.773Z,14.45
2023-05-23T11:15:52.176Z,14.60
2023-05-23T11:18:21.905Z,15.57
2023-05-23T11:20:55.046Z,17.13
2023-05-23T11:23:41.104Z,13.60
2023-05-23T11:26:31.690Z,17.80
2023-05-23T11:29:03.023Z,11.68
2023-05-23T11:31:43.212Z,9.25
2023-05-23T11:34:14.149Z,11.55
2023-05-23T11:36:42.709Z,17.85
2023-05-23T11:39:14.126Z,16.08
2023-05-23T11:41:44.394Z,13.55
2023-05-23T11:44:16.376Z,13.38
2023-05-23T11:47:00.961Z,17.10
2023-05-23T11:49:32.707Z,12.63
2023-05-23T11:52:06.788Z,10.07
2023-05-23T11:54:36.001Z,9.02
2023-05-23T11:57:10.786Z,9.77
2023-05-23T11:59:49.233Z,8.23
2023-05-23T12:02:20.376Z,33.42
2023-05-23T12:04:52.145Z,110.88
2023-05-23T12:07:22.691Z,140.05
2023-05-23T12:09:56.224Z,141.85
2023-05-23T12:12:27.258Z,99.78
2023-05-23T12:15:01.752Z,79.35
2023-05-23T12:17:30.595Z,55.88
2023-05-23T12:20:02.119Z,46.75
2023-05-23T12:22:31.632Z,33.05
2023-05-23T12:25:00.486Z,31.63
2023-05-23T12:27:30.435Z,24.73
2023-05-23T12:30:11.701Z,24.02
2023-05-23T12:32:47.368Z,18.52
2023-05-23T12:35:19.208Z,16.85
2023-05-23T12:37:50.955Z,13.55
2023-05-23T12:40:24.842Z,12.98
2023-05-23T12:42:55.534Z,12.77
2023-05-23T12:45:39.110Z,10.88
2023-05-23T12:48:07.832Z,12.43
2023-05-23T12:50:36.824Z,9.57
2023-05-23T12:53:10.921Z,8.68
2023-05-23T12:55:42.855Z,6.85
2023-05-23T12:58:11.804Z,7.63
2023-05-23T13:00:43.702Z,7.28
2023-05-23T13:03:12.416Z,8.48
2023-05-23T13:05:41.494Z,6.90
2023-05-23T13:08:15.164Z,11.18
2023-05-23T13:10:43.642Z,9.68
2023-05-23T13:13:12.470Z,9.68
2023-05-23T13:15:41.436Z,10.13
2023-05-23T13:18:12.636Z,9.70
2023-05-23T13:20:45.183Z,10.65
2023-05-23T13:23:14.623Z,12.20
2023-05-23T13:25:44.074Z,11.10
2023-05-23T13:28:16.930Z,8.30
2023-05-23T13:30:47.290Z,9.25
2023-05-23T13:33:16.583Z,10.38
2023-05-23T13:35:45.346Z,8.32
2023-05-23T13:38:14.941Z,11.55
2023-05-23T13:40:49.281Z,8.50
2023-05-23T13:43:19.742Z,10.32
2023-05-23T13:45:51.700Z,9.93
2023-05-23T13:48:26.997Z,7.50
2023-05-23T13:50:59.942Z,8.35
2023-05-23T13:53:31.856Z,7.53
2023-05-23T13:56:00.594Z,9.40
2023-05-23T13:58:30.728Z,10.85
2023-05-23T14:01:05.224Z,8.77
2023-05-23T14:03:37.344Z,9.25
2023-05-23T14:06:09.164Z,9.00
2023-05-23T14:08:37.763Z,8.98
2023-05-23T14:11:09.974Z,8.43
2023-05-23T14:13:42.261Z,10.35
2023-05-23T14:16:13.551Z,20.77
2023-05-23T14:18:47.147Z,18.55
2023-05-23T14:21:18.372Z,16.25
2023-05-23T14:23:46.961Z,16.25
2023-05-23T14:26:18.224Z,14.35
2023-05-23T14:28:46.872Z,14.02
2023-05-23T14:31:22.265Z,10.80
2023-05-23T14:33:51.097Z,16.17
2023-05-23T14:36:20.992Z,14.45
2023-05-23T14:38:51.435Z,11.60
2023-05-23T14:41:24.466Z,9.77
2023-05-23T14:43:56.358Z,11.18
2023-05-23T14:46:27.687Z,10.20
2023-05-23T14:48:59.062Z,9.45
2023-05-23T14:51:44.702Z,10.05
2023-05-23T14:54:18.779Z,11.88
2023-05-23T14:56:48.589Z,16.15
2023-05-23T14:59:20.539Z,9.25
2023-05-23T15:01:49.671Z,13.20
2023-05-23T15:04:19.722Z,13.60
2023-05-23T15:06:49.028Z,11.95
2023-05-23T15:09:21.753Z,11.10
2023-05-23T15:11:51.330Z,14.13
2023-05-23T15:14:19.963Z,12.48
2023-05-23T15:16:51.565Z,8.32
2023-05-23T15:19:25.748Z,13.13
2023-05-23T15:21:54.475Z,9.95
2023-05-23T15:24:23.193Z,10.23
2023-05-23T15:26:54.094Z,10.07
2023-05-23T15:29:25.540Z,10.55
2023-05-23T15:31:56.556Z,9.43
2023-05-23T15:34:25.008Z,9.82
2023-05-23T15:36:53.851Z,8.57
2023-05-23T15:39:28.074Z,10.07
2023-05-23T15:42:04.473Z,13.32
2023-05-23T15:44:33.195Z,17.73
2023-05-23T15:47:01.976Z,11.48
2023-05-23T15:49:30.775Z,15.23
2023-05-23T15:51:59.288Z,14.20
2023-05-23T15:54:27.820Z,12.68
2023-05-23T15:57:01.489Z,11.10
2023-05-23T15:59:31.653Z,13.80
2023-05-23T16:02:00.651Z,11.18
2023-05-23T16:04:38.127Z,11.55
2023-05-23T16:07:09.122Z,11.20
2023-05-23T16:09:40.316Z,13.77
2023-05-23T16:12:13.095Z,11.80
2023-05-23T16:14:42.800Z,11.82
2023-05-23T16:17:10.851Z,10.60
2023-05-23T16:19:39.228Z,12.30
2023-05-23T16:22:07.440Z,16.92
2023-05-23T16:24:35.338Z,19.75
2023-05-23T16:27:04.136Z,18.40
2023-05-23T16:29:35.311Z,17.58
2023-05-23T16:32:03.814Z,19.42
2023-05-23T16:34:32.388Z,18.73
2023-05-23T16:37:03.797Z,19.65
2023-05-23T16:39:34.342Z,16.85
2023-05-23T16:42:05.392Z,15.27
2023-05-23T16:44:36.957Z,11.30
2023-05-23T16:47:08.632Z,14.20
2023-05-23T16:49:37.204Z,11.63
2023-05-23T16:52:10.840Z,12.65
2023-05-23T16:54:47.714Z,10.35
2023-05-23T16:57:16.419Z,14.18
2023-05-23T16:59:50.379Z,12.43
2023-05-23T17:02:19.097Z,12.10
2023-05-23T17:04:47.788Z,11.75
2023-05-23T17:07:17.803Z,9.73
2023-05-23T17:09:48.999Z,13.43
2023-05-23T17:12:17.649Z,10.93
2023-05-23T17:14:49.607Z,10.23
2023-05-23T17:17:21.329Z,10.50
2023-05-23T17:19:56.179Z,10.90
2023-05-23T17:22:27.336Z,11.02
2023-05-23T17:24:57.733Z,10.48
2023-05-23T17:27:30.800Z,10.90
2023-05-23T17:30:00.397Z,14.07
2023-05-23T17:32:31.801Z,9.70
2023-05-23T17:35:00.572Z,12.18
2023-05-23T17:37:31.765Z,15.80
2023-05-23T17:40:01.183Z,13.98
2023-05-23T17:42:34.183Z,13.63
2023-05-23T17:45:02.629Z,15.52
2023-05-23T17:47:31.569Z,13.77
2023-05-23T17:50:03.592Z,16.73
2023-05-23T17:52:38.284Z,15.07
2023-05-23T17:55:08.661Z,15.70
2023-05-23T17:57:37.112Z,16.17
2023-05-23T18:00:09.254Z,37.45
2023-05-23T18:02:41.648Z,33.15
2023-05-23T18:05:13.858Z,25.70
2023-05-23T18:07:42.520Z,23.90
2023-05-23T18:10:17.983Z,18.90
2023-05-23T18:12:51.305Z,17.42
2023-05-23T18:15:19.780Z,14.02
2023-05-23T18:17:48.329Z,12.90
2023-05-23T18:20:18.386Z,16.42
2023-05-23T18:22:56.685Z,13.48
2023-05-23T18:25:33.859Z,11.45
2023-05-23T18:28:09.975Z,15.55
2023-05-23T18:30:38.473Z,17.10
2023-05-23T18:33:09.764Z,17.63
2023-05-23T18:35:39.849Z,15.02
2023-05-23T18:38:09.208Z,13.68
2023-05-23T18:40:37.847Z,12.55
2023-05-23T18:43:08.639Z,12.35
2023-05-23T18:45:42.714Z,10.48
2023-05-23T18:48:11.428Z,11.18
2023-05-23T18:50:40.271Z,11.60
2023-05-23T18:53:09.431Z,13.52
2023-05-23T18:55:38.534Z,12.57
2023-05-23T18:58:14.330Z,12.40
2023-05-23T19:00:46.321Z,15.65
2023-05-23T19:03:18.521Z,13.13
2023-05-23T19:05:48.271Z,13.77
2023-05-23T19:08:22.777Z,18.05
2023-05-23T19:10:51.448Z,20.50
2023-05-23T19:13:20.722Z,23.83
2023-05-23T19:15:55.924Z,19.00
2023-05-23T19:18:32.097Z,16.92
2023-05-23T19:21:01.588Z,18.25
2023-05-23T19:23:32.485Z,15.27
2023-05-23T19:26:01.100Z,14.00
2023-05-23T19:28:29.676Z,13.27
2023-05-23T19:30:58.375Z,15.45
2023-05-23T19:33:34.792Z,13.27
2023-05-23T19:36:07.034Z,11.75
2023-05-23T19:38:58.882Z,63.78
2023-05-23T19:41:35.011Z,267.35
2023-05-23T19:44:03.893Z,542.08
2023-05-23T19:46:32.612Z,609.90
2023-05-23T19:49:01.375Z,595.97
2023-05-23T19:51:30.126Z,465.90
2023-05-23T19:54:04.367Z,320.15
2023-05-23T19:59:07.064Z,147.20
2023-05-23T20:01:35.491Z,94.13
2023-05-23T20:04:08.993Z,72.72
2023-05-23T20:06:40.518Z,50.97
2023-05-23T20:09:13.536Z,37.75
2023-05-23T20:11:45.669Z,35.13
2023-05-23T20:14:14.774Z,33.20
2023-05-23T20:16:43.759Z,29.75
2023-05-23T20:19:12.269Z,30.42
2023-05-23T20:21:46.138Z,28.33
2023-05-23T20:24:19.731Z,24.42
2023-05-23T20:26:48.338Z,25.00
2023-05-23T20:29:16.917Z,21.52
2023-05-23T20:31:46.820Z,23.48
2023-05-23T20:34:16.112Z,35.60
2023-05-23T20:36:50.446Z,280.30
2023-05-23T20:39:21.850Z,232.52
2023-05-23T20:41:51.400Z,133.40
2023-05-23T20:44:21.855Z,64.75
2023-05-23T20:46:50.944Z,37.03
2023-05-23T20:49:19.964Z,32.08
2023-05-23T20:51:48.445Z,23.63
2023-05-23T20:54:21.442Z,25.58
2023-05-23T20:56:52.785Z,23.38
2023-05-23T20:59:21.853Z,24.70
2023-05-23T21:01:50.777Z,22.23
2023-05-23T21:04:19.356Z,23.73
2023-05-23T21:06:48.071Z,23.95
2023-05-23T21:09:16.969Z,21.02
2023-05-23T21:11:48.223Z,20.83
2023-05-23T21:14:17.170Z,19.90
2023-05-23T21:16:46.918Z,20.55
2023-05-23T21:19:15.829Z,19.52
2023-05-23T21:21:45.115Z,19.00
2023-05-23T21:24:16.601Z,23.52
2023-05-23T21:26:47.939Z,21.88
2023-05-23T21:29:16.772Z,20.55
2023-05-23T21:31:47.333Z,18.38
2023-05-23T21:34:24.044Z,18.50
2023-05-23T21:36:55.279Z,16.83
2023-05-23T21:39:36.005Z,15.65
2023-05-23T21:42:15.065Z,16.00
2023-05-23T21:44:43.763Z,15.27
2023-05-23T21:47:15.521Z,14.48
2023-05-23T21:49:51.373Z,17.13
2023-05-23T21:52:20.413Z,16.73
2023-05-23T21:54:49.035Z,14.35
2023-05-23T21:57:17.286Z,15.30
2023-05-23T21:59:46.093Z,15.77
2023-05-23T22:02:17.822Z,15.35
2023-05-23T22:04:49.422Z,15.40
2023-05-23T22:07:19.490Z,16.10
2023-05-23T22:09:51.584Z,13.45
2023-05-23T22:12:20.726Z,13.02
2023-05-23T22:14:50.036Z,12.80
2023-05-23T22:17:22.974Z,12.00
2023-05-23T22:19:52.314Z,12.15
2023-05-23T22:22:21.700Z,13.55
2023-05-23T22:24:54.689Z,12.02
2023-05-23T22:27:26.519Z,12.48
2023-05-23T22:29:57.835Z,10.55
2023-05-23T22:32:29.090Z,10.57
2023-05-23T22:34:59.205Z,10.43
2023-05-23T22:37:27.891Z,10.98
2023-05-23T22:39:59.028Z,12.00
2023-05-23T22:42:27.563Z,10.75
2023-05-23T22:44:58.090Z,10.73
2023-05-23T22:47:29.484Z,12.02
2023-05-23T22:50:08.106Z,11.63
2023-05-23T22:52:36.922Z,11.55
2023-05-23T22:55:08.094Z,12.98
2023-05-23T22:57:39.105Z,11.00
2023-05-23T23:00:11.541Z,10.45
2023-05-23T23:02:41.516Z,11.50
2023-05-23T23:08:08.665Z,10.48
2023-05-23T23:10:37.307Z,9.45
2023-05-23T23:13:09.753Z,9.32
2023-05-23T23:15:44.476Z,9.32
2023-05-23T23:18:13.950Z,9.93
2023-05-23T23:20:49.527Z,10.13
2023-05-23T23:23:19.539Z,8.20
2023-05-23T23:25:50.563Z,8.32
2023-05-23T23:28:20.098Z,9.63
2023-05-23T23:30:48.873Z,9.38
2023-05-23T23:33:19.995Z,7.70
2023-05-23T23:35:49.307Z,8.73
2023-05-23T23:38:21.664Z,7.22
2023-05-23T23:40:52.058Z,8.27
2023-05-23T23:43:20.440Z,8.05
2023-05-23T23:45:49.041Z,7.63
2023-05-23T23:48:19.858Z,8.63
2023-05-23T23:50:48.522Z,7.68
2023-05-23T23:53:18.412Z,7.72
2023-05-23T23:55:47.804Z,8.18
2023-05-23T23:58:16.707Z,7.05
